sensor_id;sensor_type;location;lat;lon;timestamp;temperature;humidity
44863;DHT22;30597;49.628;10.850;2023-04-16T00:01:31;20.50;51.00
44863;DHT22;30597;49.628;10.850;2023-04-16T00:03:57;20.50;51.10
44863;DHT22;30597;49.628;10.850;2023-04-16T00:06:23;20.50;51.20
44863;DHT22;30597;49.628;10.850;2023-04-16T00:08:49;20.50;51.00
44863;DHT22;30597;49.628;10.850;2023-04-16T00:11:16;20.50;51.20
44863;DHT22;30597;49.628;10.850;2023-04-16T00:13:41;20.50;51.30
44863;DHT22;30597;49.628;10.850;2023-04-16T00:16:07;20.40;51.20
44863;DHT22;30597;49.628;10.850;2023-04-16T00:18:33;20.50;51.20
44863;DHT22;30597;49.628;10.850;2023-04-16T00:20:58;20.50;51.30
44863;DHT22;30597;49.628;10.850;2023-04-16T00:23:24;20.50;51.20
44863;DHT22;30597;49.628;10.850;2023-04-16T00:25:50;20.50;51.30
44863;DHT22;30597;49.628;10.850;2023-04-16T00:28:16;20.50;51.30
44863;DHT22;30597;49.628;10.850;2023-04-16T00:30:41;20.50;51.40
44863;DHT22;30597;49.628;10.850;2023-04-16T00:33:07;20.40;51.40
44863;DHT22;30597;49.628;10.850;2023-04-16T00:35:33;20.50;51.50
44863;DHT22;30597;49.628;10.850;2023-04-16T00:37:59;20.50;51.50
44863;DHT22;30597;49.628;10.850;2023-04-16T00:40:28;20.40;51.40
44863;DHT22;30597;49.628;10.850;2023-04-16T00:42:53;20.40;51.50
44863;DHT22;30597;49.628;10.850;2023-04-16T00:45:19;20.40;51.60
44863;DHT22;30597;49.628;10.850;2023-04-16T00:47:45;20.40;51.50
44863;DHT22;30597;49.628;10.850;2023-04-16T00:50:11;20.40;51.50
44863;DHT22;30597;49.628;10.850;2023-04-16T00:52:37;20.40;51.50
44863;DHT22;30597;49.628;10.850;2023-04-16T00:55:05;20.40;51.50
44863;DHT22;30597;49.628;10.850;2023-04-16T00:57:31;20.30;51.50
44863;DHT22;30597;49.628;10.850;2023-04-16T00:59:57;20.30;51.50
44863;DHT22;30597;49.628;10.850;2023-04-16T01:02:23;20.40;51.50
44863;DHT22;30597;49.628;10.850;2023-04-16T01:04:49;20.40;51.60
44863;DHT22;30597;49.628;10.850;2023-04-16T01:07:16;20.40;51.60
44863;DHT22;30597;49.628;10.850;2023-04-16T01:09:41;20.40;51.50
44863;DHT22;30597;49.628;10.850;2023-04-16T01:12:07;20.30;51.50
44863;DHT22;30597;49.628;10.850;2023-04-16T01:14:33;20.30;51.50
44863;DHT22;30597;49.628;10.850;2023-04-16T01:17:01;20.40;51.80
44863;DHT22;30597;49.628;10.850;2023-04-16T01:19:27;20.40;51.90
44863;DHT22;30597;49.628;10.850;2023-04-16T01:21:55;20.30;51.90
44863;DHT22;30597;49.628;10.850;2023-04-16T01:24:21;20.30;52.00
44863;DHT22;30597;49.628;10.850;2023-04-16T01:26:46;20.30;51.90
44863;DHT22;30597;49.628;10.850;2023-04-16T01:29:12;20.30;52.00
44863;DHT22;30597;49.628;10.850;2023-04-16T01:31:37;20.30;51.90
44863;DHT22;30597;49.628;10.850;2023-04-16T01:34:03;20.30;51.90
44863;DHT22;30597;49.628;10.850;2023-04-16T01:36:29;20.30;52.00
44863;DHT22;30597;49.628;10.850;2023-04-16T01:38:54;20.30;51.90
44863;DHT22;30597;49.628;10.850;2023-04-16T01:41:20;20.30;51.90
44863;DHT22;30597;49.628;10.850;2023-04-16T01:43:45;20.30;51.90
44863;DHT22;30597;49.628;10.850;2023-04-16T01:46:17;20.30;52.00
44863;DHT22;30597;49.628;10.850;2023-04-16T01:48:45;20.30;52.00
44863;DHT22;30597;49.628;10.850;2023-04-16T01:51:10;20.30;51.90
44863;DHT22;30597;49.628;10.850;2023-04-16T01:53:36;20.30;51.90
44863;DHT22;30597;49.628;10.850;2023-04-16T01:56:02;20.30;51.90
44863;DHT22;30597;49.628;10.850;2023-04-16T01:58:28;20.30;51.90
44863;DHT22;30597;49.628;10.850;2023-04-16T02:00:54;20.30;52.10
44863;DHT22;30597;49.628;10.850;2023-04-16T02:03:20;20.30;51.90
44863;DHT22;30597;49.628;10.850;2023-04-16T02:05:48;20.30;51.90
44863;DHT22;30597;49.628;10.850;2023-04-16T02:08:14;20.30;51.90
44863;DHT22;30597;49.628;10.850;2023-04-16T02:10:39;20.30;51.90
44863;DHT22;30597;49.628;10.850;2023-04-16T02:13:05;20.30;52.00
44863;DHT22;30597;49.628;10.850;2023-04-16T02:15:30;20.30;51.90
44863;DHT22;30597;49.628;10.850;2023-04-16T02:17:56;20.30;51.90
44863;DHT22;30597;49.628;10.850;2023-04-16T02:20:21;20.30;51.80
44863;DHT22;30597;49.628;10.850;2023-04-16T02:22:47;20.30;51.90
44863;DHT22;30597;49.628;10.850;2023-04-16T02:25:13;20.20;51.80
44863;DHT22;30597;49.628;10.850;2023-04-16T02:27:39;20.20;51.90
44863;DHT22;30597;49.628;10.850;2023-04-16T02:30:05;20.20;51.90
44863;DHT22;30597;49.628;10.850;2023-04-16T02:32:30;20.20;51.90
44863;DHT22;30597;49.628;10.850;2023-04-16T02:34:56;20.20;51.90
44863;DHT22;30597;49.628;10.850;2023-04-16T02:37:22;20.20;52.00
44863;DHT22;30597;49.628;10.850;2023-04-16T02:39:48;20.20;52.00
44863;DHT22;30597;49.628;10.850;2023-04-16T02:42:14;20.10;52.00
44863;DHT22;30597;49.628;10.850;2023-04-16T02:44:40;20.10;52.00
44863;DHT22;30597;49.628;10.850;2023-04-16T02:47:06;20.20;52.00
44863;DHT22;30597;49.628;10.850;2023-04-16T02:49:32;20.10;52.00
44863;DHT22;30597;49.628;10.850;2023-04-16T02:51:57;20.20;52.10
44863;DHT22;30597;49.628;10.850;2023-04-16T02:54:23;20.20;52.20
44863;DHT22;30597;49.628;10.850;2023-04-16T02:56:48;20.10;52.10
44863;DHT22;30597;49.628;10.850;2023-04-16T02:59:14;20.10;52.10
44863;DHT22;30597;49.628;10.850;2023-04-16T03:01:39;20.10;52.10
44863;DHT22;30597;49.628;10.850;2023-04-16T03:04:05;20.10;52.20
44863;DHT22;30597;49.628;10.850;2023-04-16T03:06:31;20.20;52.30
44863;DHT22;30597;49.628;10.850;2023-04-16T03:08:57;20.20;52.20
44863;DHT22;30597;49.628;10.850;2023-04-16T03:11:22;20.10;52.10
44863;DHT22;30597;49.628;10.850;2023-04-16T03:13:48;20.10;52.10
44863;DHT22;30597;49.628;10.850;2023-04-16T03:16:13;20.10;52.10
44863;DHT22;30597;49.628;10.850;2023-04-16T03:18:39;20.10;52.80
44863;DHT22;30597;49.628;10.850;2023-04-16T03:21:05;20.10;52.10
44863;DHT22;30597;49.628;10.850;2023-04-16T03:23:30;20.10;52.10
44863;DHT22;30597;49.628;10.850;2023-04-16T03:25:56;20.10;52.10
44863;DHT22;30597;49.628;10.850;2023-04-16T03:28:22;20.10;52.10
44863;DHT22;30597;49.628;10.850;2023-04-16T03:30:51;20.10;52.10
44863;DHT22;30597;49.628;10.850;2023-04-16T03:33:17;20.10;52.10
44863;DHT22;30597;49.628;10.850;2023-04-16T03:35:43;20.10;52.10
44863;DHT22;30597;49.628;10.850;2023-04-16T03:38:08;20.00;52.00
44863;DHT22;30597;49.628;10.850;2023-04-16T03:40:34;20.10;52.10
44863;DHT22;30597;49.628;10.850;2023-04-16T03:42:59;20.10;52.10
44863;DHT22;30597;49.628;10.850;2023-04-16T03:45:25;20.00;52.00
44863;DHT22;30597;49.628;10.850;2023-04-16T03:47:50;20.00;52.00
44863;DHT22;30597;49.628;10.850;2023-04-16T03:50:20;20.00;52.00
44863;DHT22;30597;49.628;10.850;2023-04-16T03:52:45;20.00;52.00
44863;DHT22;30597;49.628;10.850;2023-04-16T03:55:13;20.00;52.00
44863;DHT22;30597;49.628;10.850;2023-04-16T03:57:39;20.00;52.00
44863;DHT22;30597;49.628;10.850;2023-04-16T04:00:06;20.00;51.90
44863;DHT22;30597;49.628;10.850;2023-04-16T04:02:32;20.00;51.90
44863;DHT22;30597;49.628;10.850;2023-04-16T04:04:57;20.00;51.90
44863;DHT22;30597;49.628;10.850;2023-04-16T04:07:23;20.00;51.90
44863;DHT22;30597;49.628;10.850;2023-04-16T04:09:48;20.00;51.90
44863;DHT22;30597;49.628;10.850;2023-04-16T04:12:14;20.00;51.90
44863;DHT22;30597;49.628;10.850;2023-04-16T04:14:39;20.00;51.90
44863;DHT22;30597;49.628;10.850;2023-04-16T04:17:06;20.00;51.90
44863;DHT22;30597;49.628;10.850;2023-04-16T04:19:31;20.00;52.00
44863;DHT22;30597;49.628;10.850;2023-04-16T04:21:57;20.00;52.00
44863;DHT22;30597;49.628;10.850;2023-04-16T04:24:22;20.00;52.00
44863;DHT22;30597;49.628;10.850;2023-04-16T04:26:48;20.00;52.00
44863;DHT22;30597;49.628;10.850;2023-04-16T04:29:13;20.00;52.00
44863;DHT22;30597;49.628;10.850;2023-04-16T04:31:39;20.00;52.10
44863;DHT22;30597;49.628;10.850;2023-04-16T04:34:05;19.90;51.90
44863;DHT22;30597;49.628;10.850;2023-04-16T04:36:30;19.90;51.90
44863;DHT22;30597;49.628;10.850;2023-04-16T04:38:56;19.90;52.00
44863;DHT22;30597;49.628;10.850;2023-04-16T04:41:22;19.90;52.00
44863;DHT22;30597;49.628;10.850;2023-04-16T04:43:47;19.90;51.90
44863;DHT22;30597;49.628;10.850;2023-04-16T04:46:13;19.90;52.00
44863;DHT22;30597;49.628;10.850;2023-04-16T04:48:38;19.90;52.00
44863;DHT22;30597;49.628;10.850;2023-04-16T04:51:04;19.90;52.10
44863;DHT22;30597;49.628;10.850;2023-04-16T04:53:30;19.90;52.10
44863;DHT22;30597;49.628;10.850;2023-04-16T04:55:55;19.90;52.10
44863;DHT22;30597;49.628;10.850;2023-04-16T04:58:21;19.90;52.00
44863;DHT22;30597;49.628;10.850;2023-04-16T05:00:46;19.90;52.10
44863;DHT22;30597;49.628;10.850;2023-04-16T05:03:18;19.90;52.10
44863;DHT22;30597;49.628;10.850;2023-04-16T05:05:44;19.90;52.20
44863;DHT22;30597;49.628;10.850;2023-04-16T05:08:10;19.90;52.70
44863;DHT22;30597;49.628;10.850;2023-04-16T05:10:35;19.90;52.10
44863;DHT22;30597;49.628;10.850;2023-04-16T05:13:01;20.00;52.20
44863;DHT22;30597;49.628;10.850;2023-04-16T05:15:26;20.00;52.20
44863;DHT22;30597;49.628;10.850;2023-04-16T05:17:52;20.00;52.10
44863;DHT22;30597;49.628;10.850;2023-04-16T05:20:18;20.00;52.10
44863;DHT22;30597;49.628;10.850;2023-04-16T05:22:43;20.00;52.10
44863;DHT22;30597;49.628;10.850;2023-04-16T05:25:09;20.00;52.10
44863;DHT22;30597;49.628;10.850;2023-04-16T05:27:35;20.00;52.70
44863;DHT22;30597;49.628;10.850;2023-04-16T05:30:01;20.00;52.10
44863;DHT22;30597;49.628;10.850;2023-04-16T05:32:27;20.00;52.00
44863;DHT22;30597;49.628;10.850;2023-04-16T05:34:52;19.90;52.00
44863;DHT22;30597;49.628;10.850;2023-04-16T05:37:18;19.90;52.00
44863;DHT22;30597;49.628;10.850;2023-04-16T05:39:44;19.90;52.00
44863;DHT22;30597;49.628;10.850;2023-04-16T05:42:09;19.90;52.10
44863;DHT22;30597;49.628;10.850;2023-04-16T05:44:35;19.90;52.70
44863;DHT22;30597;49.628;10.850;2023-04-16T05:47:00;19.90;52.10
44863;DHT22;30597;49.628;10.850;2023-04-16T05:49:26;19.90;52.10
44863;DHT22;30597;49.628;10.850;2023-04-16T05:51:51;19.90;52.10
44863;DHT22;30597;49.628;10.850;2023-04-16T05:54:17;19.90;52.70
44863;DHT22;30597;49.628;10.850;2023-04-16T05:56:42;19.90;52.00
44863;DHT22;30597;49.628;10.850;2023-04-16T05:59:08;20.00;52.10
44863;DHT22;30597;49.628;10.850;2023-04-16T06:01:34;19.90;52.10
44863;DHT22;30597;49.628;10.850;2023-04-16T06:03:59;20.00;52.10
44863;DHT22;30597;49.628;10.850;2023-04-16T06:06:25;19.90;52.10
44863;DHT22;30597;49.628;10.850;2023-04-16T06:08:51;20.00;52.50
44863;DHT22;30597;49.628;10.850;2023-04-16T06:11:17;20.10;52.50
44863;DHT22;30597;49.628;10.850;2023-04-16T06:13:43;20.20;52.50
44863;DHT22;30597;49.628;10.850;2023-04-16T06:16:09;20.30;52.30
44863;DHT22;30597;49.628;10.850;2023-04-16T06:18:34;20.40;52.30
44863;DHT22;30597;49.628;10.850;2023-04-16T06:21:00;20.50;52.30
44863;DHT22;30597;49.628;10.850;2023-04-16T06:23:26;20.60;52.40
44863;DHT22;30597;49.628;10.850;2023-04-16T06:25:51;20.70;51.70
44863;DHT22;30597;49.628;10.850;2023-04-16T06:28:17;20.70;51.10
44863;DHT22;30597;49.628;10.850;2023-04-16T06:30:42;20.70;50.60
44863;DHT22;30597;49.628;10.850;2023-04-16T06:33:08;20.80;50.70
44863;DHT22;30597;49.628;10.850;2023-04-16T06:35:33;20.80;50.70
44863;DHT22;30597;49.628;10.850;2023-04-16T06:38:00;20.90;50.90
44863;DHT22;30597;49.628;10.850;2023-04-16T06:40:25;21.00;50.80
44863;DHT22;30597;49.628;10.850;2023-04-16T06:42:51;21.10;50.90
44863;DHT22;30597;49.628;10.850;2023-04-16T06:45:17;21.10;50.80
44863;DHT22;30597;49.628;10.850;2023-04-16T06:47:42;21.20;50.90
44863;DHT22;30597;49.628;10.850;2023-04-16T06:50:08;21.20;50.80
44863;DHT22;30597;49.628;10.850;2023-04-16T06:52:34;21.20;50.80
44863;DHT22;30597;49.628;10.850;2023-04-16T06:55:00;21.30;50.80
44863;DHT22;30597;49.628;10.850;2023-04-16T06:57:25;21.40;50.80
44863;DHT22;30597;49.628;10.850;2023-04-16T06:59:51;21.40;50.80
44863;DHT22;30597;49.628;10.850;2023-04-16T07:02:16;21.50;50.80
44863;DHT22;30597;49.628;10.850;2023-04-16T07:04:42;21.50;50.80
44863;DHT22;30597;49.628;10.850;2023-04-16T07:07:07;21.50;50.60
44863;DHT22;30597;49.628;10.850;2023-04-16T07:09:33;21.60;50.70
44863;DHT22;30597;49.628;10.850;2023-04-16T07:11:59;21.70;50.70
44863;DHT22;30597;49.628;10.850;2023-04-16T07:14:24;21.60;50.50
44863;DHT22;30597;49.628;10.850;2023-04-16T07:16:50;21.70;50.60
44863;DHT22;30597;49.628;10.850;2023-04-16T07:19:15;21.70;50.50
44863;DHT22;30597;49.628;10.850;2023-04-16T07:21:41;21.70;50.40
44863;DHT22;30597;49.628;10.850;2023-04-16T07:24:08;21.70;50.50
44863;DHT22;30597;49.628;10.850;2023-04-16T07:26:34;21.70;50.20
44863;DHT22;30597;49.628;10.850;2023-04-16T07:29:00;21.70;50.30
44863;DHT22;30597;49.628;10.850;2023-04-16T07:31:26;21.70;50.30
44863;DHT22;30597;49.628;10.850;2023-04-16T07:33:51;21.70;50.10
44863;DHT22;30597;49.628;10.850;2023-04-16T07:36:17;21.60;49.90
44863;DHT22;30597;49.628;10.850;2023-04-16T07:38:43;21.50;49.90
44863;DHT22;30597;49.628;10.850;2023-04-16T07:41:08;21.50;49.90
44863;DHT22;30597;49.628;10.850;2023-04-16T07:43:34;21.40;49.80
44863;DHT22;30597;49.628;10.850;2023-04-16T07:45:59;21.40;49.90
44863;DHT22;30597;49.628;10.850;2023-04-16T07:48:25;21.30;49.90
44863;DHT22;30597;49.628;10.850;2023-04-16T07:50:51;21.30;49.90
44863;DHT22;30597;49.628;10.850;2023-04-16T07:53:17;21.20;49.90
44863;DHT22;30597;49.628;10.850;2023-04-16T07:55:42;21.30;50.00
44863;DHT22;30597;49.628;10.850;2023-04-16T07:58:08;21.10;49.90
44863;DHT22;30597;49.628;10.850;2023-04-16T08:00:34;21.10;49.90
44863;DHT22;30597;49.628;10.850;2023-04-16T08:03:00;21.10;50.00
44863;DHT22;30597;49.628;10.850;2023-04-16T08:05:25;21.00;49.90
44863;DHT22;30597;49.628;10.850;2023-04-16T08:07:51;21.00;49.90
44863;DHT22;30597;49.628;10.850;2023-04-16T08:10:16;21.00;50.00
44863;DHT22;30597;49.628;10.850;2023-04-16T08:12:42;20.90;50.00
44863;DHT22;30597;49.628;10.850;2023-04-16T08:15:08;20.90;50.00
44863;DHT22;30597;49.628;10.850;2023-04-16T08:17:34;20.80;50.00
44863;DHT22;30597;49.628;10.850;2023-04-16T08:20:00;20.80;50.00
44863;DHT22;30597;49.628;10.850;2023-04-16T08:22:26;20.80;50.00
44863;DHT22;30597;49.628;10.850;2023-04-16T08:24:52;20.80;50.00
44863;DHT22;30597;49.628;10.850;2023-04-16T08:27:17;20.90;49.90
44863;DHT22;30597;49.628;10.850;2023-04-16T08:29:43;21.00;49.80
44863;DHT22;30597;49.628;10.850;2023-04-16T08:32:08;21.00;49.60
44863;DHT22;30597;49.628;10.850;2023-04-16T08:34:35;21.10;49.60
44863;DHT22;30597;49.628;10.850;2023-04-16T08:37:01;21.20;49.50
44863;DHT22;30597;49.628;10.850;2023-04-16T08:39:26;21.30;49.40
44863;DHT22;30597;49.628;10.850;2023-04-16T08:41:53;21.40;49.10
44863;DHT22;30597;49.628;10.850;2023-04-16T08:44:24;21.40;49.00
44863;DHT22;30597;49.628;10.850;2023-04-16T08:46:51;21.40;48.90
44863;DHT22;30597;49.628;10.850;2023-04-16T08:49:21;21.50;48.90
44863;DHT22;30597;49.628;10.850;2023-04-16T08:51:53;21.50;48.80
44863;DHT22;30597;49.628;10.850;2023-04-16T08:54:33;21.60;48.70
44863;DHT22;30597;49.628;10.850;2023-04-16T08:57:05;21.60;48.60
44863;DHT22;30597;49.628;10.850;2023-04-16T08:59:31;21.60;48.50
44863;DHT22;30597;49.628;10.850;2023-04-16T09:01:58;21.60;48.40
44863;DHT22;30597;49.628;10.850;2023-04-16T09:04:27;21.70;48.40
44863;DHT22;30597;49.628;10.850;2023-04-16T09:06:54;21.60;48.30
44863;DHT22;30597;49.628;10.850;2023-04-16T09:09:21;21.70;48.40
44863;DHT22;30597;49.628;10.850;2023-04-16T09:11:50;21.60;48.30
44863;DHT22;30597;49.628;10.850;2023-04-16T09:14:16;21.60;48.40
44863;DHT22;30597;49.628;10.850;2023-04-16T09:16:44;21.50;48.00
44863;DHT22;30597;49.628;10.850;2023-04-16T09:19:09;21.50;48.40
44863;DHT22;30597;49.628;10.850;2023-04-16T09:21:35;21.50;48.20
44863;DHT22;30597;49.628;10.850;2023-04-16T09:24:01;21.60;48.80
44863;DHT22;30597;49.628;10.850;2023-04-16T09:26:27;21.50;47.80
44863;DHT22;30597;49.628;10.850;2023-04-16T09:28:54;21.50;47.60
44863;DHT22;30597;49.628;10.850;2023-04-16T09:31:20;21.40;47.40
44863;DHT22;30597;49.628;10.850;2023-04-16T09:34:04;21.40;47.50
44863;DHT22;30597;49.628;10.850;2023-04-16T09:36:29;21.30;47.60
44863;DHT22;30597;49.628;10.850;2023-04-16T09:38:59;21.30;47.70
44863;DHT22;30597;49.628;10.850;2023-04-16T09:41:26;21.30;48.40
44863;DHT22;30597;49.628;10.850;2023-04-16T09:44:00;21.20;47.80
44863;DHT22;30597;49.628;10.850;2023-04-16T09:46:30;21.20;47.90
44863;DHT22;30597;49.628;10.850;2023-04-16T09:48:56;21.20;48.30
44863;DHT22;30597;49.628;10.850;2023-04-16T09:51:22;21.10;47.80
44863;DHT22;30597;49.628;10.850;2023-04-16T09:53:51;21.10;47.80
44863;DHT22;30597;49.628;10.850;2023-04-16T09:56:23;21.10;47.80
44863;DHT22;30597;49.628;10.850;2023-04-16T09:58:52;21.00;47.80
44863;DHT22;30597;49.628;10.850;2023-04-16T10:01:20;21.00;47.90
44863;DHT22;30597;49.628;10.850;2023-04-16T10:03:48;21.10;47.90
44863;DHT22;30597;49.628;10.850;2023-04-16T10:06:16;21.20;47.80
44863;DHT22;30597;49.628;10.850;2023-04-16T10:08:46;21.30;47.70
44863;DHT22;30597;49.628;10.850;2023-04-16T10:11:11;21.40;47.60
44863;DHT22;30597;49.628;10.850;2023-04-16T10:13:37;21.50;47.60
44863;DHT22;30597;49.628;10.850;2023-04-16T10:16:03;21.50;47.40
44863;DHT22;30597;49.628;10.850;2023-04-16T10:18:29;21.60;47.30
44863;DHT22;30597;49.628;10.850;2023-04-16T10:20:56;21.70;47.30
44863;DHT22;30597;49.628;10.850;2023-04-16T10:23:22;21.70;47.10
44863;DHT22;30597;49.628;10.850;2023-04-16T10:25:49;21.80;47.10
44863;DHT22;30597;49.628;10.850;2023-04-16T10:28:15;21.80;47.60
44863;DHT22;30597;49.628;10.850;2023-04-16T10:30:44;21.90;47.80
44863;DHT22;30597;49.628;10.850;2023-04-16T10:33:21;22.00;48.00
44863;DHT22;30597;49.628;10.850;2023-04-16T10:35:48;22.00;48.20
44863;DHT22;30597;49.628;10.850;2023-04-16T10:38:25;22.10;48.30
44863;DHT22;30597;49.628;10.850;2023-04-16T10:41:06;22.10;48.20
44863;DHT22;30597;49.628;10.850;2023-04-16T10:43:38;22.10;47.70
44863;DHT22;30597;49.628;10.850;2023-04-16T10:46:22;22.10;47.50
44863;DHT22;30597;49.628;10.850;2023-04-16T10:48:51;22.10;47.50
44863;DHT22;30597;49.628;10.850;2023-04-16T10:51:29;22.00;47.40
44863;DHT22;30597;49.628;10.850;2023-04-16T10:54:18;22.00;48.00
44863;DHT22;30597;49.628;10.850;2023-04-16T10:56:44;22.00;48.10
44863;DHT22;30597;49.628;10.850;2023-04-16T10:59:10;22.00;48.20
44863;DHT22;30597;49.628;10.850;2023-04-16T11:01:40;22.00;48.20
44863;DHT22;30597;49.628;10.850;2023-04-16T11:07:13;21.90;48.00
44863;DHT22;30597;49.628;10.850;2023-04-16T11:10:03;21.80;48.50
44863;DHT22;30597;49.628;10.850;2023-04-16T11:15:02;21.80;48.10
44863;DHT22;30597;49.628;10.850;2023-04-16T11:17:37;21.70;48.00
44863;DHT22;30597;49.628;10.850;2023-04-16T11:20:09;21.60;48.10
44863;DHT22;30597;49.628;10.850;2023-04-16T11:22:35;21.60;48.10
44863;DHT22;30597;49.628;10.850;2023-04-16T11:25:04;21.50;48.20
44863;DHT22;30597;49.628;10.850;2023-04-16T11:27:30;21.50;48.20
44863;DHT22;30597;49.628;10.850;2023-04-16T11:30:06;21.40;48.20
44863;DHT22;30597;49.628;10.850;2023-04-16T11:32:35;21.40;48.40
44863;DHT22;30597;49.628;10.850;2023-04-16T11:35:04;21.40;48.40
44863;DHT22;30597;49.628;10.850;2023-04-16T11:37:34;21.40;48.50
44863;DHT22;30597;49.628;10.850;2023-04-16T11:40:01;21.30;48.40
44863;DHT22;30597;49.628;10.850;2023-04-16T11:42:29;21.30;48.50
44863;DHT22;30597;49.628;10.850;2023-04-16T11:44:56;21.30;48.50
44863;DHT22;30597;49.628;10.850;2023-04-16T11:47:22;21.30;48.60
44863;DHT22;30597;49.628;10.850;2023-04-16T11:49:49;21.30;48.50
44863;DHT22;30597;49.628;10.850;2023-04-16T11:52:31;21.40;48.40
44863;DHT22;30597;49.628;10.850;2023-04-16T11:54:58;21.50;48.80
44863;DHT22;30597;49.628;10.850;2023-04-16T11:57:28;21.60;48.00
44863;DHT22;30597;49.628;10.850;2023-04-16T11:59:55;21.60;47.90
44863;DHT22;30597;49.628;10.850;2023-04-16T12:02:37;21.70;47.80
44863;DHT22;30597;49.628;10.850;2023-04-16T12:05:05;21.80;47.80
44863;DHT22;30597;49.628;10.850;2023-04-16T12:07:33;21.80;47.70
44863;DHT22;30597;49.628;10.850;2023-04-16T12:10:07;21.80;47.60
44863;DHT22;30597;49.628;10.850;2023-04-16T12:12:33;21.90;47.50
44863;DHT22;30597;49.628;10.850;2023-04-16T12:15:01;22.00;47.50
44863;DHT22;30597;49.628;10.850;2023-04-16T12:17:32;22.00;47.40
44863;DHT22;30597;49.628;10.850;2023-04-16T12:19:59;22.00;47.30
44863;DHT22;30597;49.628;10.850;2023-04-16T12:22:30;22.10;47.30
44863;DHT22;30597;49.628;10.850;2023-04-16T12:25:16;22.10;47.20
44863;DHT22;30597;49.628;10.850;2023-04-16T12:27:46;22.10;47.10
44863;DHT22;30597;49.628;10.850;2023-04-16T12:30:14;22.10;47.10
44863;DHT22;30597;49.628;10.850;2023-04-16T12:32:41;22.10;47.10
44863;DHT22;30597;49.628;10.850;2023-04-16T12:35:08;22.10;47.10
44863;DHT22;30597;49.628;10.850;2023-04-16T12:37:34;22.10;47.10
44863;DHT22;30597;49.628;10.850;2023-04-16T12:40:00;22.10;47.10
44863;DHT22;30597;49.628;10.850;2023-04-16T12:42:26;22.00;47.10
44863;DHT22;30597;49.628;10.850;2023-04-16T12:44:51;22.00;47.10
44863;DHT22;30597;49.628;10.850;2023-04-16T12:47:17;21.90;47.10
44863;DHT22;30597;49.628;10.850;2023-04-16T12:49:43;21.90;47.60
44863;DHT22;30597;49.628;10.850;2023-04-16T12:52:09;21.90;48.00
44863;DHT22;30597;49.628;10.850;2023-04-16T12:54:34;21.90;48.20
44863;DHT22;30597;49.628;10.850;2023-04-16T12:57:00;21.80;48.20
44863;DHT22;30597;49.628;10.850;2023-04-16T12:59:26;21.80;48.00
44863;DHT22;30597;49.628;10.850;2023-04-16T13:01:51;21.70;47.80
44863;DHT22;30597;49.628;10.850;2023-04-16T13:04:17;21.70;47.80
44863;DHT22;30597;49.628;10.850;2023-04-16T13:06:45;21.60;47.70
44863;DHT22;30597;49.628;10.850;2023-04-16T13:09:11;21.60;47.80
44863;DHT22;30597;49.628;10.850;2023-04-16T13:11:37;21.60;48.20
44863;DHT22;30597;49.628;10.850;2023-04-16T13:14:02;21.60;47.80
44863;DHT22;30597;49.628;10.850;2023-04-16T13:16:28;21.60;47.60
44863;DHT22;30597;49.628;10.850;2023-04-16T13:18:53;21.60;47.50
44863;DHT22;30597;49.628;10.850;2023-04-16T13:21:19;21.60;47.30
44863;DHT22;30597;49.628;10.850;2023-04-16T13:23:44;21.60;47.30
44863;DHT22;30597;49.628;10.850;2023-04-16T13:26:10;21.60;47.30
44863;DHT22;30597;49.628;10.850;2023-04-16T13:28:37;21.60;47.10
44863;DHT22;30597;49.628;10.850;2023-04-16T13:31:03;21.60;46.80
44863;DHT22;30597;49.628;10.850;2023-04-16T13:33:28;21.60;46.90
44863;DHT22;30597;49.628;10.850;2023-04-16T13:35:54;21.60;46.90
44863;DHT22;30597;49.628;10.850;2023-04-16T13:38:20;21.70;46.70
44863;DHT22;30597;49.628;10.850;2023-04-16T13:40:45;21.70;46.30
44863;DHT22;30597;49.628;10.850;2023-04-16T13:43:11;21.70;46.20
44863;DHT22;30597;49.628;10.850;2023-04-16T13:45:38;21.70;46.10
44863;DHT22;30597;49.628;10.850;2023-04-16T13:48:04;21.70;46.10
44863;DHT22;30597;49.628;10.850;2023-04-16T13:50:29;21.80;46.20
44863;DHT22;30597;49.628;10.850;2023-04-16T13:52:55;21.80;46.20
44863;DHT22;30597;49.628;10.850;2023-04-16T13:55:21;21.90;46.30
44863;DHT22;30597;49.628;10.850;2023-04-16T13:57:47;21.90;46.30
44863;DHT22;30597;49.628;10.850;2023-04-16T14:00:14;22.00;46.50
44863;DHT22;30597;49.628;10.850;2023-04-16T14:02:41;22.00;46.30
44863;DHT22;30597;49.628;10.850;2023-04-16T14:05:07;22.00;46.30
44863;DHT22;30597;49.628;10.850;2023-04-16T14:07:32;22.00;46.20
44863;DHT22;30597;49.628;10.850;2023-04-16T14:09:58;22.00;46.20
44863;DHT22;30597;49.628;10.850;2023-04-16T14:12:23;22.10;46.40
44863;DHT22;30597;49.628;10.850;2023-04-16T14:14:49;22.00;45.90
44863;DHT22;30597;49.628;10.850;2023-04-16T14:17:15;22.00;45.80
44863;DHT22;30597;49.628;10.850;2023-04-16T14:19:40;22.00;45.90
44863;DHT22;30597;49.628;10.850;2023-04-16T14:22:06;21.90;46.00
44863;DHT22;30597;49.628;10.850;2023-04-16T14:24:32;21.90;46.10
44863;DHT22;30597;49.628;10.850;2023-04-16T14:26:57;21.80;46.10
44863;DHT22;30597;49.628;10.850;2023-04-16T14:29:23;21.80;46.20
44863;DHT22;30597;49.628;10.850;2023-04-16T14:31:49;21.70;46.30
44863;DHT22;30597;49.628;10.850;2023-04-16T14:34:15;21.70;47.10
44863;DHT22;30597;49.628;10.850;2023-04-16T14:36:41;21.70;46.60
44863;DHT22;30597;49.628;10.850;2023-04-16T14:39:06;21.60;46.60
44863;DHT22;30597;49.628;10.850;2023-04-16T14:41:32;21.60;46.70
44863;DHT22;30597;49.628;10.850;2023-04-16T14:43:58;21.60;46.80
44863;DHT22;30597;49.628;10.850;2023-04-16T14:46:24;21.50;47.50
44863;DHT22;30597;49.628;10.850;2023-04-16T14:48:51;21.50;47.00
44863;DHT22;30597;49.628;10.850;2023-04-16T14:51:17;21.40;47.00
44863;DHT22;30597;49.628;10.850;2023-04-16T14:53:43;21.30;47.10
44863;DHT22;30597;49.628;10.850;2023-04-16T14:56:09;21.30;47.20
44863;DHT22;30597;49.628;10.850;2023-04-16T14:58:35;21.30;47.40
44863;DHT22;30597;49.628;10.850;2023-04-16T15:01:01;21.20;47.40
44863;DHT22;30597;49.628;10.850;2023-04-16T15:03:28;21.20;47.50
44863;DHT22;30597;49.628;10.850;2023-04-16T15:05:54;21.30;47.70
44863;DHT22;30597;49.628;10.850;2023-04-16T15:08:21;21.20;47.70
44863;DHT22;30597;49.628;10.850;2023-04-16T15:10:46;21.10;47.70
44863;DHT22;30597;49.628;10.850;2023-04-16T15:13:12;21.10;47.80
44863;DHT22;30597;49.628;10.850;2023-04-16T15:15:37;21.10;47.70
44863;DHT22;30597;49.628;10.850;2023-04-16T15:18:03;21.10;47.70